createdAt,value
2018-12-31T00:02:06.934Z,7.73
2018-12-31T00:04:38.562Z,7.97
2018-12-31T00:07:11.372Z,8.63
2018-12-31T00:09:42.464Z,7.70
2018-12-31T00:12:13.557Z,7.27
2018-12-31T00:14:46.269Z,6.60
2018-12-31T00:17:17.531Z,8.33
2018-12-31T00:19:48.757Z,7.70
2018-12-31T00:22:20.197Z,5.67
2018-12-31T00:24:51.615Z,6.60
2018-12-31T00:27:22.760Z,6.13
2018-12-31T00:29:53.898Z,6.23
2018-12-31T00:32:25.033Z,6.20
2018-12-31T00:34:56.120Z,5.47
2018-12-31T00:37:27.429Z,6.03
2018-12-31T00:39:59.024Z,5.50
2018-12-31T00:42:30.300Z,5.80
2018-12-31T00:45:01.400Z,6.47
2018-12-31T00:47:33.022Z,6.47
2018-12-31T00:50:04.590Z,5.80
2018-12-31T00:52:35.990Z,6.03
2018-12-31T00:55:06.980Z,6.20
2018-12-31T00:57:38.144Z,5.77
2018-12-31T01:00:09.594Z,5.70
2018-12-31T01:02:40.664Z,6.37
2018-12-31T01:05:12.146Z,5.87
2018-12-31T01:07:43.149Z,5.30
2018-12-31T01:10:14.563Z,5.55
2018-12-31T01:12:45.679Z,5.43
2018-12-31T01:15:18.414Z,5.40
2018-12-31T01:17:50.499Z,5.10
2018-12-31T01:20:21.755Z,4.70
2018-12-31T01:22:53.742Z,4.00
2018-12-31T01:25:25.310Z,4.80
2018-12-31T01:27:56.734Z,5.00
2018-12-31T01:30:27.901Z,4.80
2018-12-31T01:33:00.725Z,4.97
2018-12-31T01:35:32.179Z,4.40
2018-12-31T01:38:03.316Z,4.47
2018-12-31T01:40:34.511Z,4.43
2018-12-31T01:43:06.601Z,4.20
2018-12-31T01:45:37.689Z,3.97
2018-12-31T01:48:08.857Z,4.20
2018-12-31T01:50:39.965Z,4.00
2018-12-31T01:53:11.329Z,3.58
2018-12-31T01:55:44.106Z,3.97
2018-12-31T01:58:15.389Z,3.40
2018-12-31T02:00:47.199Z,3.67
2018-12-31T02:03:19.023Z,3.85
2018-12-31T02:05:50.353Z,3.43
2018-12-31T02:08:22.799Z,3.70
2018-12-31T02:10:54.060Z,4.07
2018-12-31T02:13:25.474Z,3.30
2018-12-31T02:15:57.021Z,3.20
2018-12-31T02:18:28.691Z,3.10
2018-12-31T02:21:00.061Z,3.17
2018-12-31T02:23:31.217Z,3.60
2018-12-31T02:26:02.863Z,2.83
2018-12-31T02:28:33.872Z,3.23
2018-12-31T02:31:06.008Z,3.62
2018-12-31T02:33:37.279Z,3.10
2018-12-31T02:36:08.749Z,3.73
2018-12-31T02:38:40.069Z,3.47
2018-12-31T02:41:11.421Z,3.30
2018-12-31T02:43:42.558Z,3.33
2018-12-31T02:46:14.032Z,3.37
2018-12-31T02:48:45.108Z,3.77
2018-12-31T02:51:16.270Z,3.42
2018-12-31T02:53:49.946Z,3.63
2018-12-31T02:56:22.086Z,3.87
2018-12-31T02:58:55.134Z,3.67
2018-12-31T03:01:26.385Z,4.23
2018-12-31T03:03:57.481Z,3.93
2018-12-31T03:06:30.585Z,3.87
2018-12-31T03:09:01.925Z,4.28
2018-12-31T03:11:33.056Z,3.97
2018-12-31T03:14:04.186Z,3.87
2018-12-31T03:16:35.267Z,3.80
2018-12-31T03:19:06.294Z,3.40
2018-12-31T03:21:37.374Z,4.03
2018-12-31T03:24:08.404Z,3.90
2018-12-31T03:26:39.825Z,3.60
2018-12-31T03:29:11.282Z,3.83
2018-12-31T03:31:42.660Z,3.50
2018-12-31T03:34:13.910Z,3.17
2018-12-31T03:36:44.913Z,3.43
2018-12-31T03:39:16.254Z,3.50
2018-12-31T03:41:47.272Z,3.63
2018-12-31T03:44:20.266Z,3.58
2018-12-31T03:46:52.932Z,3.50
2018-12-31T03:49:24.266Z,3.33
2018-12-31T03:51:55.221Z,3.60
2018-12-31T03:54:26.486Z,3.60
2018-12-31T03:56:59.178Z,3.50
2018-12-31T03:59:30.478Z,3.60
2018-12-31T04:02:01.886Z,3.27
2018-12-31T04:04:33.000Z,4.37
2018-12-31T04:07:04.150Z,3.40
2018-12-31T04:09:35.563Z,3.37
2018-12-31T04:12:06.689Z,3.60
2018-12-31T04:14:38.053Z,3.57
2018-12-31T04:17:09.198Z,2.73
2018-12-31T04:19:40.332Z,3.00
2018-12-31T04:22:11.848Z,3.60
2018-12-31T04:24:43.110Z,2.70
2018-12-31T04:27:14.205Z,3.27
2018-12-31T04:29:45.495Z,2.60
2018-12-31T04:32:16.728Z,2.87
2018-12-31T04:34:48.032Z,2.30
2018-12-31T04:37:19.118Z,2.55
2018-12-31T04:39:50.235Z,2.90
2018-12-31T04:42:21.504Z,2.60
2018-12-31T04:44:52.606Z,2.30
2018-12-31T04:47:23.825Z,2.37
2018-12-31T04:49:54.871Z,2.27
2018-12-31T04:52:26.366Z,2.60
2018-12-31T04:54:57.838Z,2.67
2018-12-31T04:57:29.062Z,2.40
2018-12-31T05:00:00.311Z,2.70
2018-12-31T05:02:33.394Z,2.93
2018-12-31T05:05:05.966Z,3.00
2018-12-31T05:07:36.958Z,4.10
2018-12-31T05:10:08.118Z,4.23
2018-12-31T05:12:39.611Z,5.43
2018-12-31T05:15:10.849Z,4.92
2018-12-31T05:17:42.444Z,5.33
2018-12-31T05:20:14.050Z,4.83
2018-12-31T05:22:45.133Z,4.97
2018-12-31T05:25:18.035Z,4.80
2018-12-31T05:27:49.404Z,5.20
2018-12-31T05:30:21.082Z,5.22
2018-12-31T05:32:53.738Z,5.03
2018-12-31T05:35:25.050Z,5.13
2018-12-31T05:37:55.991Z,5.37
2018-12-31T05:40:27.255Z,5.07
2018-12-31T05:42:58.418Z,5.20
2018-12-31T05:45:29.786Z,4.80
2018-12-31T05:48:00.888Z,4.47
2018-12-31T05:50:33.541Z,4.83
2018-12-31T05:53:04.603Z,5.43
2018-12-31T05:55:35.818Z,5.43
2018-12-31T05:58:06.871Z,5.40
2018-12-31T06:00:38.326Z,5.23
2018-12-31T06:03:09.308Z,5.50
2018-12-31T06:05:40.833Z,4.10
2018-12-31T06:08:12.126Z,4.40
2018-12-31T06:10:43.235Z,5.07
2018-12-31T06:13:14.855Z,4.45
2018-12-31T06:15:46.094Z,4.50
2018-12-31T06:18:17.507Z,4.83
2018-12-31T06:20:48.792Z,4.97
2018-12-31T06:23:19.783Z,3.70
2018-12-31T06:25:52.669Z,3.73
2018-12-31T06:28:24.070Z,3.63
2018-12-31T06:30:55.622Z,3.47
2018-12-31T06:33:26.778Z,3.83
2018-12-31T06:35:57.909Z,3.40
2018-12-31T06:38:28.981Z,3.58
2018-12-31T06:41:00.293Z,3.43
2018-12-31T06:43:31.335Z,3.53
2018-12-31T06:46:02.801Z,3.60
2018-12-31T06:48:33.964Z,3.20
2018-12-31T06:51:07.320Z,3.45
2018-12-31T06:53:39.239Z,4.40
2018-12-31T06:56:10.445Z,4.08
2018-12-31T06:58:41.583Z,3.40
2018-12-31T07:01:13.377Z,4.07
2018-12-31T07:03:44.707Z,4.60
2018-12-31T07:06:16.212Z,5.00
2018-12-31T07:08:47.574Z,4.10
2018-12-31T07:11:18.971Z,4.60
2018-12-31T07:13:50.188Z,4.70
2018-12-31T07:16:22.405Z,4.60
2018-12-31T07:18:53.636Z,6.27
2018-12-31T07:21:24.655Z,5.53
2018-12-31T07:23:55.992Z,4.43
2018-12-31T07:26:27.135Z,4.37
2018-12-31T07:28:58.362Z,4.20
2018-12-31T07:31:31.545Z,3.70
2018-12-31T07:34:02.555Z,5.03
2018-12-31T07:36:33.912Z,4.30
2018-12-31T07:39:08.173Z,4.70
2018-12-31T07:41:39.919Z,4.70
2018-12-31T07:44:10.890Z,4.70
2018-12-31T07:46:43.778Z,4.93
2018-12-31T07:49:16.365Z,5.47
2018-12-31T07:51:47.617Z,6.07
2018-12-31T07:54:18.655Z,5.55
2018-12-31T07:56:49.852Z,5.15
2018-12-31T07:59:21.423Z,4.70
2018-12-31T08:01:52.447Z,5.20
2018-12-31T08:04:24.070Z,5.27
2018-12-31T08:06:57.324Z,4.60
2018-12-31T08:09:28.383Z,5.07
2018-12-31T08:12:00.971Z,5.50
2018-12-31T08:14:33.227Z,5.23
2018-12-31T08:17:04.229Z,4.87
2018-12-31T08:19:35.171Z,5.20
2018-12-31T08:22:06.283Z,6.37
2018-12-31T08:24:37.664Z,4.80
2018-12-31T08:27:08.688Z,4.70
2018-12-31T08:29:40.648Z,5.20
2018-12-31T08:32:11.792Z,5.83
2018-12-31T08:34:42.830Z,5.20
2018-12-31T08:37:13.889Z,4.93
2018-12-31T08:39:45.014Z,7.23
2018-12-31T08:42:16.122Z,6.87
2018-12-31T08:44:47.275Z,6.47
2018-12-31T08:47:18.590Z,5.67
2018-12-31T08:49:49.808Z,6.00
2018-12-31T08:52:21.156Z,6.70
2018-12-31T08:54:53.837Z,4.43
2018-12-31T08:57:25.027Z,5.87
2018-12-31T08:59:57.768Z,5.70
2018-12-31T09:02:28.877Z,4.50
2018-12-31T09:04:59.946Z,4.00
2018-12-31T09:07:31.251Z,3.77
2018-12-31T09:10:02.522Z,3.27
2018-12-31T09:12:34.200Z,3.83
2018-12-31T09:15:06.241Z,4.03
2018-12-31T09:17:39.107Z,3.63
2018-12-31T09:20:10.393Z,2.87
2018-12-31T09:22:41.636Z,3.27
2018-12-31T09:25:13.822Z,3.23
2018-12-31T09:27:44.848Z,3.80
2018-12-31T09:30:16.142Z,2.87
2018-12-31T09:32:47.406Z,2.20
2018-12-31T09:35:18.512Z,2.58
2018-12-31T09:37:51.847Z,3.00
2018-12-31T09:40:23.204Z,2.90
2018-12-31T09:42:54.485Z,3.20
2018-12-31T09:45:25.742Z,4.00
2018-12-31T09:47:56.894Z,2.47
2018-12-31T09:50:28.476Z,1.97
2018-12-31T09:53:00.111Z,1.90
2018-12-31T09:55:31.283Z,2.00
2018-12-31T09:58:02.415Z,2.77
2018-12-31T10:00:33.577Z,3.80
2018-12-31T10:03:04.764Z,3.20
2018-12-31T10:05:35.901Z,2.83
2018-12-31T10:08:07.290Z,4.80
2018-12-31T10:10:38.430Z,4.20
2018-12-31T10:13:09.489Z,4.10
2018-12-31T10:15:41.633Z,4.08
2018-12-31T10:18:13.041Z,5.40
2018-12-31T10:20:44.023Z,6.50
2018-12-31T10:23:15.034Z,5.47
2018-12-31T10:25:46.105Z,4.57
2018-12-31T10:28:18.594Z,5.20
2018-12-31T10:30:49.754Z,3.37
2018-12-31T10:33:22.619Z,4.45
2018-12-31T10:35:54.011Z,5.20
2018-12-31T10:38:25.633Z,6.00
2018-12-31T10:40:56.768Z,7.10
2018-12-31T10:43:28.130Z,5.13
2018-12-31T10:45:59.253Z,7.70
2018-12-31T10:48:30.967Z,8.53
2018-12-31T10:51:02.203Z,9.20
2018-12-31T10:53:33.761Z,8.80
2018-12-31T10:56:05.732Z,12.25
2018-12-31T10:58:37.089Z,9.80
2018-12-31T11:01:08.067Z,7.63
2018-12-31T11:03:39.816Z,7.10
2018-12-31T11:06:10.992Z,7.15
2018-12-31T11:08:42.214Z,5.23
2018-12-31T11:11:13.154Z,5.87
2018-12-31T11:13:44.159Z,5.30
2018-12-31T11:16:15.213Z,4.90
2018-12-31T11:18:47.031Z,5.67
2018-12-31T11:21:18.213Z,8.55
2018-12-31T11:23:49.326Z,4.57
2018-12-31T11:26:20.589Z,5.30
2018-12-31T11:28:51.614Z,6.40
2018-12-31T11:31:30.180Z,6.83
2018-12-31T11:33:56.856Z,7.20
2018-12-31T11:36:28.203Z,5.47
2018-12-31T11:39:00.689Z,5.80
2018-12-31T11:41:32.971Z,7.80
2018-12-31T11:44:04.186Z,7.40
2018-12-31T11:46:36.994Z,8.70
2018-12-31T11:49:08.138Z,8.07
2018-12-31T11:51:39.184Z,6.07
2018-12-31T11:54:10.247Z,6.97
2018-12-31T11:56:41.457Z,6.10
2018-12-31T11:59:12.949Z,5.23
2018-12-31T12:01:43.941Z,5.33
2018-12-31T12:04:15.231Z,6.15
2018-12-31T12:06:46.208Z,7.20
2018-12-31T12:09:17.414Z,7.53
2018-12-31T12:11:48.710Z,5.43
2018-12-31T12:14:19.946Z,8.87
2018-12-31T12:16:51.015Z,7.10
2018-12-31T12:19:22.029Z,7.97
2018-12-31T12:21:54.571Z,6.40
2018-12-31T12:24:25.793Z,7.12
2018-12-31T12:26:56.852Z,6.73
2018-12-31T12:29:28.218Z,8.03
2018-12-31T12:31:59.662Z,8.63
2018-12-31T12:34:31.458Z,9.13
2018-12-31T12:37:03.629Z,7.20
2018-12-31T12:39:35.003Z,7.10
2018-12-31T12:42:05.967Z,7.37
2018-12-31T12:44:37.385Z,8.10
2018-12-31T12:47:08.403Z,7.20
2018-12-31T12:49:39.970Z,8.57
2018-12-31T12:52:11.042Z,7.80
2018-12-31T12:54:42.908Z,9.30
2018-12-31T12:57:13.898Z,8.20
2018-12-31T12:59:45.800Z,7.77
2018-12-31T13:02:19.113Z,7.50
2018-12-31T13:04:50.079Z,8.00
2018-12-31T13:07:21.497Z,7.37
2018-12-31T13:09:54.092Z,8.03
2018-12-31T13:12:25.568Z,8.70
2018-12-31T13:14:57.910Z,7.20
2018-12-31T13:17:29.088Z,8.30
2018-12-31T13:20:00.495Z,7.80
2018-12-31T13:22:31.798Z,8.20
2018-12-31T13:25:04.627Z,8.50
2018-12-31T13:27:35.806Z,9.47
2018-12-31T13:30:07.241Z,10.97
2018-12-31T13:32:38.499Z,8.93
2018-12-31T13:35:09.895Z,10.33
2018-12-31T13:37:41.041Z,8.40
2018-12-31T13:40:12.237Z,8.73
2018-12-31T13:42:43.460Z,10.10
2018-12-31T13:45:14.723Z,7.80
2018-12-31T13:47:45.950Z,6.93
2018-12-31T13:50:17.100Z,8.55
2018-12-31T13:52:49.031Z,5.00
2018-12-31T13:55:20.302Z,5.65
2018-12-31T13:57:51.405Z,3.80
2018-12-31T14:00:22.512Z,4.87
2018-12-31T14:02:53.577Z,5.93
2018-12-31T14:05:24.820Z,7.30
2018-12-31T14:07:56.026Z,6.67
2018-12-31T14:10:27.323Z,5.00
2018-12-31T14:12:58.433Z,6.23
2018-12-31T14:15:29.598Z,8.47
2018-12-31T14:18:00.955Z,8.98
2018-12-31T14:20:32.216Z,9.27
2018-12-31T14:23:03.273Z,9.00
2018-12-31T14:25:34.674Z,9.70
2018-12-31T14:28:06.245Z,7.80
2018-12-31T14:30:38.117Z,6.80
2018-12-31T14:33:09.274Z,8.50
2018-12-31T14:35:45.772Z,9.83
2018-12-31T14:38:14.422Z,8.47
2018-12-31T14:40:46.179Z,7.80
2018-12-31T14:43:17.681Z,7.67
2018-12-31T14:45:49.062Z,6.90
2018-12-31T14:48:20.873Z,7.40
2018-12-31T14:50:53.239Z,7.70
2018-12-31T14:53:25.954Z,7.43
2018-12-31T14:55:57.566Z,7.90
2018-12-31T14:58:28.694Z,6.20
2018-12-31T15:01:00.355Z,6.72
2018-12-31T15:03:31.422Z,6.67
2018-12-31T15:06:02.827Z,6.90
2018-12-31T15:08:34.819Z,7.83
2018-12-31T15:11:06.046Z,8.10
2018-12-31T15:13:37.120Z,8.17
2018-12-31T15:16:08.380Z,8.53
2018-12-31T15:18:39.546Z,7.83
2018-12-31T15:21:10.781Z,7.62
2018-12-31T15:23:42.107Z,8.27
2018-12-31T15:26:13.236Z,9.30
2018-12-31T15:28:44.417Z,10.63
2018-12-31T15:31:16.279Z,9.70
2018-12-31T15:33:47.554Z,10.67
2018-12-31T15:36:18.695Z,10.93
2018-12-31T15:38:50.649Z,16.93
2018-12-31T15:41:23.866Z,15.13
2018-12-31T15:43:55.205Z,18.90
2018-12-31T15:46:26.316Z,25.13
2018-12-31T15:48:58.099Z,21.00
2018-12-31T15:51:29.331Z,23.93
2018-12-31T15:54:00.316Z,19.20
2018-12-31T15:56:33.218Z,20.53
2018-12-31T15:59:04.435Z,20.57
2018-12-31T16:01:35.638Z,18.02
2018-12-31T16:04:06.716Z,16.40
2018-12-31T16:06:38.054Z,16.85
2018-12-31T16:09:09.039Z,19.43
2018-12-31T16:11:40.451Z,16.10
2018-12-31T16:14:11.632Z,19.03
2018-12-31T16:16:43.341Z,20.17
2018-12-31T16:19:14.313Z,20.92
2018-12-31T16:21:46.192Z,30.17
2018-12-31T16:24:18.787Z,25.07
2018-12-31T16:26:50.013Z,22.83
2018-12-31T16:29:21.147Z,25.97
2018-12-31T16:31:52.234Z,25.80
2018-12-31T16:34:25.016Z,24.90
2018-12-31T16:36:56.718Z,27.50
2018-12-31T16:39:28.017Z,25.83
2018-12-31T16:41:59.098Z,24.30
2018-12-31T16:44:30.093Z,22.80
2018-12-31T16:47:01.452Z,25.23
2018-12-31T16:49:32.639Z,21.83
2018-12-31T16:52:04.624Z,19.32
2018-12-31T16:54:36.168Z,17.93
2018-12-31T16:57:07.296Z,14.70
2018-12-31T16:59:38.375Z,15.23
2018-12-31T17:02:09.453Z,15.70
2018-12-31T17:04:41.399Z,13.93
2018-12-31T17:07:12.685Z,15.48
2018-12-31T17:09:45.399Z,16.20
2018-12-31T17:12:20.252Z,13.87
2018-12-31T17:14:51.430Z,12.60
2018-12-31T17:17:22.609Z,13.85
2018-12-31T17:19:53.910Z,14.35
2018-12-31T17:22:25.618Z,14.17
2018-12-31T17:24:58.151Z,12.37
2018-12-31T17:27:29.183Z,8.17
2018-12-31T17:30:00.543Z,12.27
2018-12-31T17:32:31.732Z,10.80
2018-12-31T17:35:02.893Z,9.68
2018-12-31T17:37:34.476Z,9.57
2018-12-31T17:40:06.629Z,9.57
2018-12-31T17:42:39.055Z,14.60
2018-12-31T17:45:10.109Z,13.35
2018-12-31T17:47:41.705Z,15.97
2018-12-31T17:50:12.858Z,14.20
2018-12-31T17:52:45.500Z,17.33
2018-12-31T17:55:16.476Z,15.72
2018-12-31T17:57:47.739Z,16.90
2018-12-31T18:00:19.386Z,14.70
2018-12-31T18:02:50.939Z,13.73
2018-12-31T18:05:23.597Z,20.40
2018-12-31T18:07:54.657Z,13.43
2018-12-31T18:10:25.883Z,13.70
2018-12-31T18:12:59.649Z,14.33
2018-12-31T18:15:30.924Z,14.78
2018-12-31T18:18:01.964Z,15.90
2018-12-31T18:20:33.590Z,16.73
2018-12-31T18:23:04.621Z,17.77
2018-12-31T18:25:37.817Z,20.40
2018-12-31T18:28:08.817Z,20.37
2018-12-31T18:30:40.371Z,21.48
2018-12-31T18:33:11.475Z,22.58
2018-12-31T18:35:43.042Z,22.95
2018-12-31T18:38:14.262Z,23.15
2018-12-31T18:40:45.442Z,25.03
2018-12-31T18:43:16.586Z,25.95
2018-12-31T18:45:48.090Z,27.20
2018-12-31T18:48:19.302Z,30.60
2018-12-31T18:50:50.681Z,29.07
2018-12-31T18:53:22.181Z,28.53
2018-12-31T18:55:53.256Z,30.30
2018-12-31T18:58:24.588Z,29.40
2018-12-31T19:00:55.730Z,31.47
2018-12-31T19:03:26.987Z,31.47
2018-12-31T19:05:58.053Z,31.37
2018-12-31T19:08:29.418Z,31.40
2018-12-31T19:11:00.788Z,33.03
2018-12-31T19:13:32.107Z,33.60
2018-12-31T19:16:03.260Z,34.13
2018-12-31T19:18:34.307Z,35.87
2018-12-31T19:21:05.836Z,37.15
2018-12-31T19:23:37.857Z,36.42
2018-12-31T19:26:09.180Z,36.60
2018-12-31T19:28:40.329Z,34.70
2018-12-31T19:31:11.316Z,37.33
2018-12-31T19:33:42.511Z,36.40
2018-12-31T19:36:13.868Z,36.10
2018-12-31T19:38:44.898Z,37.23
2018-12-31T19:41:17.169Z,37.78
2018-12-31T19:43:48.366Z,38.23
2018-12-31T19:46:19.487Z,40.53
2018-12-31T19:48:53.321Z,40.20
2018-12-31T19:51:24.497Z,39.60
2018-12-31T19:53:56.158Z,41.33
2018-12-31T19:56:27.353Z,40.33
2018-12-31T19:58:59.012Z,45.23
2018-12-31T20:01:30.494Z,42.60
2018-12-31T20:04:02.259Z,42.40
2018-12-31T20:06:33.617Z,40.50
2018-12-31T20:09:05.699Z,40.83
2018-12-31T20:11:36.914Z,41.17
2018-12-31T20:14:07.930Z,38.03
2018-12-31T20:16:39.029Z,34.93
2018-12-31T20:19:10.237Z,34.03
2018-12-31T20:21:41.310Z,33.30
2018-12-31T20:24:12.399Z,71.00
2018-12-31T20:26:45.117Z,37.27
2018-12-31T20:29:16.873Z,37.73
2018-12-31T20:31:48.068Z,42.70
2018-12-31T20:34:19.394Z,47.10
2018-12-31T20:36:50.690Z,46.07
2018-12-31T20:39:21.887Z,46.90
2018-12-31T20:41:54.217Z,48.00
2018-12-31T20:44:25.934Z,48.03
2018-12-31T20:46:57.026Z,46.23
2018-12-31T20:49:29.897Z,49.57
2018-12-31T20:52:01.528Z,52.20
2018-12-31T20:54:32.629Z,50.17
2018-12-31T20:57:03.897Z,49.07
2018-12-31T20:59:36.413Z,47.00
2018-12-31T21:02:08.463Z,45.07
2018-12-31T21:04:39.897Z,44.77
2018-12-31T21:07:11.151Z,46.97
2018-12-31T21:09:42.349Z,46.70
2018-12-31T21:12:13.612Z,46.77
2018-12-31T21:14:44.913Z,44.98
2018-12-31T21:17:16.014Z,44.40
2018-12-31T21:19:47.363Z,45.73
2018-12-31T21:22:18.569Z,42.27
2018-12-31T21:24:49.667Z,42.27
2018-12-31T21:27:20.791Z,42.25
2018-12-31T21:29:51.880Z,42.57
2018-12-31T21:32:22.980Z,41.02
2018-12-31T21:34:54.367Z,42.90
2018-12-31T21:37:25.448Z,41.53
2018-12-31T21:39:56.558Z,43.13
2018-12-31T21:42:27.773Z,41.00
2018-12-31T21:45:01.251Z,41.20
2018-12-31T21:47:32.488Z,41.27
2018-12-31T21:50:03.859Z,41.40
2018-12-31T21:52:35.192Z,42.17
2018-12-31T21:55:06.950Z,43.10
2018-12-31T21:57:38.962Z,42.77
2018-12-31T22:00:10.569Z,44.20
2018-12-31T22:02:42.174Z,43.30
2018-12-31T22:05:13.251Z,41.55
2018-12-31T22:07:44.309Z,40.10
2018-12-31T22:10:15.396Z,39.80
2018-12-31T22:12:46.596Z,40.50
2018-12-31T22:15:17.781Z,41.37
2018-12-31T22:17:48.919Z,43.30
2018-12-31T22:20:20.329Z,44.27
2018-12-31T22:22:51.677Z,45.20
2018-12-31T22:25:24.206Z,43.35
2018-12-31T22:27:55.470Z,44.60
2018-12-31T22:30:27.199Z,44.50
2018-12-31T22:32:58.375Z,42.47
2018-12-31T22:35:30.961Z,43.10
2018-12-31T22:38:02.254Z,43.97
2018-12-31T22:40:33.859Z,45.47
2018-12-31T22:43:05.572Z,46.68
2018-12-31T22:45:37.851Z,47.07
2018-12-31T22:48:09.056Z,48.20
2018-12-31T22:50:40.184Z,50.93
2018-12-31T22:53:11.630Z,49.27
2018-12-31T22:55:42.950Z,52.50
2018-12-31T22:58:13.951Z,48.42
2018-12-31T23:00:45.121Z,70.13
2018-12-31T23:03:16.557Z,228.77
2018-12-31T23:05:49.398Z,125.20
2018-12-31T23:08:20.754Z,62.88
2018-12-31T23:10:51.962Z,53.48
2018-12-31T23:13:23.283Z,77.97
2018-12-31T23:15:54.466Z,128.87
2018-12-31T23:18:27.149Z,75.87
2018-12-31T23:20:58.489Z,70.63
2018-12-31T23:23:29.848Z,73.80
2018-12-31T23:26:01.854Z,80.70
2018-12-31T23:28:32.914Z,90.50
2018-12-31T23:31:04.327Z,98.77
2018-12-31T23:33:35.331Z,104.67
2018-12-31T23:36:06.485Z,104.23
2018-12-31T23:38:37.934Z,92.67
2018-12-31T23:41:09.594Z,94.67
2018-12-31T23:43:40.730Z,98.97
2018-12-31T23:46:12.043Z,91.05
2018-12-31T23:48:43.141Z,78.23
2018-12-31T23:51:14.540Z,65.77
2018-12-31T23:53:45.703Z,66.60
2018-12-31T23:56:16.888Z,59.83
2018-12-31T23:58:48.966Z,57.10
